Time;durP1;ratioP1;P1;durP2;ratioP2;P2;SDS_P1;SDS_P2;PMS_P1;PMS_P2;Temp;Humidity;BMP_temperature;BMP_pressure;BME280_temperature;BME280_humidity;BME280_pressure;Samples;Min_cycle;Max_cycle;Signal;HPM_P1;HPM_P2
2022/10/26 13:40:23;;;;;;;0.52;0.52;;;15.30;80.70;;;15.96;67.86;95388.56;5096932;27;21014;-77
2022/10/26 13:42:58;;;;;;;0.50;0.50;;;15.70;82.20;;;16.65;66.30;95390.50;5083446;28;20205;-78
2022/10/26 13:49:12;;;;;;;0.52;0.52;;;16.90;79.80;;;17.63;63.84;95390.66;5091060;27;1263718;-79
2022/10/26 13:51:49;;;;;;;0.50;0.50;;;17.30;79.80;;;18.05;63.36;95387.25;5080285;28;20555;-76
2022/10/26 13:54:28;;;;;;;0.50;0.50;;;17.70;79.50;;;18.42;62.57;95388.91;5078327;28;20201;-79
2022/10/26 13:57:09;;;;;;;0.50;0.50;;;18.00;78.70;;;18.73;61.64;95383.28;5078823;28;20198;-78
2022/10/26 13:59:42;;;;;;;0.50;0.50;;;18.40;78.10;;;19.00;60.95;95390.78;5095286;28;20197;-77
2022/10/26 14:02:23;;;;;;;0.50;0.50;;;18.60;77.80;;;19.20;60.60;95384.31;5061558;28;20625;-77
2022/10/26 14:05:03;;;;;;;0.47;0.47;;;18.90;77.30;;;19.47;60.24;95403.22;5078052;28;20700;-76
2022/10/26 14:07:51;;;;;;;0.63;0.63;;;19.10;77.00;;;19.63;59.80;95385.69;5094786;28;20209;-76
2022/10/26 14:10:36;;;;;;;0.60;0.60;;;19.40;76.50;;;19.79;59.27;95396.63;5058838;28;20206;-77
2022/10/26 14:13:15;;;;;;;0.57;0.57;;;19.60;77.00;;;20.02;58.99;95400.25;5089985;28;20286;-76
2022/10/26 14:15:44;;;;;;;0.60;0.60;;;19.80;75.90;;;20.13;59.00;95399.38;5074340;28;20178;-76
2022/10/26 14:18:25;;;;;;;0.47;0.47;;;19.90;75.80;;;20.27;58.28;95400.69;5057300;28;20200;-76
2022/10/26 14:21:19;;;;;;;0.40;0.40;;;20.00;75.30;;;20.38;58.07;95399.00;5057615;28;20192;-77
2022/10/26 14:23:54;;;;;;;0.50;0.50;;;20.20;75.10;;;20.48;58.06;95398.34;5074652;28;20198;-76
2022/10/26 14:26:45;;;;;;;0.50;0.50;;;20.30;74.90;;;20.56;57.81;95394.50;5091061;28;20669;-76
2022/10/26 14:29:19;;;;;;;0.50;0.50;;;20.40;74.60;;;20.67;57.46;95403.44;5075060;28;20200;-76
2022/10/26 14:31:48;;;;;;;0.50;0.50;;;20.50;74.40;;;20.76;57.32;95405.50;5074423;28;20265;-76
2022/10/26 14:34:18;;;;;;;0.40;0.40;;;20.60;74.40;;;20.85;57.04;95407.72;5058013;28;20592;-76
2022/10/26 14:36:57;;;;;;;0.45;0.45;;;20.70;74.30;;;20.91;56.86;95407.56;5057378;28;20573;-76
2022/10/26 14:39:33;;;;;;;0.50;0.50;;;20.80;74.10;;;20.92;56.37;95401.19;5074709;28;20188;-77
2022/10/26 14:42:27;;;;;;;0.40;0.40;;;20.80;73.90;;;20.99;56.57;95406.34;5090968;28;20199;-77
2022/10/26 14:44:56;;;;;;;0.40;0.40;;;20.90;73.70;;;21.04;56.64;95402.94;5064120;28;20234;-76
2022/10/26 14:47:30;;;;;;;0.40;0.40;;;20.90;73.50;;;21.10;55.96;95404.63;5057021;28;20242;-77
2022/10/26 14:49:58;;;;;;;0.40;0.40;;;21.00;73.30;;;21.14;55.98;95403.09;5057339;28;20209;-76
2022/10/26 14:52:34;;;;;;;0.40;0.40;;;21.00;73.20;;;21.18;55.55;95406.88;5057183;28;20201;-77
2022/10/26 14:55:12;;;;;;;0.50;0.50;;;21.10;72.90;;;21.22;55.78;95404.50;5057072;28;20531;-76
2022/10/26 14:57:41;;;;;;;0.50;0.50;;;21.10;72.90;;;21.23;55.35;95406.94;5073331;28;20212;-76
2022/10/26 15:00:24;;;;;;;0.45;0.45;;;21.10;72.80;;;21.26;55.37;95406.44;5044918;28;20258;-77
2022/10/26 15:02:53;;;;;;;0.47;0.47;;;21.20;72.50;;;21.25;55.37;95396.81;5043809;28;20208;-77
2022/10/26 15:05:32;;;;;;;0.40;0.40;;;21.20;72.60;;;21.31;55.41;95403.00;5060398;28;20258;-77
2022/10/26 15:08:02;;;;;;;0.50;0.50;;;21.30;72.30;;;21.35;55.34;95414.81;5064791;28;20238;-76
2022/10/26 15:10:36;;;;;;;0.50;0.50;;;21.30;72.40;;;21.36;55.01;95410.28;5060074;28;20193;-76
2022/10/26 15:13:18;;;;;;;0.50;0.50;;;21.30;72.00;;;21.38;54.70;95430.31;5077613;28;20189;-77
2022/10/26 15:15:46;;;;;;;0.45;0.45;;;21.30;71.80;;;21.37;55.09;95425.25;5076546;28;20699;-77
2022/10/26 15:18:29;;;;;;;0.52;0.52;;;21.30;72.00;;;21.38;54.77;95427.66;5076451;28;20197;-76
2022/10/26 15:20:57;;;;;;;0.50;0.50;;;21.30;71.70;;;21.42;54.77;95427.97;5060097;28;20191;-77
2022/10/26 15:23:27;;;;;;;0.40;0.40;;;21.40;71.90;;;21.43;54.44;95430.41;5061842;28;20717;-77
2022/10/26 15:25:57;;;;;;;0.47;0.47;;;21.30;71.70;;;21.46;54.26;95434.44;5060309;28;20215;-77
2022/10/26 15:28:41;;;;;;;0.32;0.32;;;21.40;71.80;;;21.46;54.36;95437.09;5059888;28;20203;-76
2022/10/26 15:31:11;;;;;;;0.40;0.40;;;21.40;71.50;;;21.48;54.50;95431.50;5060849;28;20563;-82
2022/10/26 15:33:51;;;;;;;0.50;0.50;;;21.40;71.40;;;21.48;54.33;95431.50;5060337;28;20195;-77
2022/10/26 15:36:21;;;;;;;0.47;0.47;;;21.40;71.50;;;21.49;54.43;95431.25;5077214;28;20201;-77
2022/10/26 15:38:48;;;;;;;0.50;0.50;;;21.40;71.60;;;21.49;54.53;95428.59;5060290;28;20643;-76
2022/10/26 15:41:25;;;;;;;0.50;0.50;;;21.40;71.50;;;21.52;54.45;95433.44;5076212;28;20201;-77
2022/10/26 15:43:56;;;;;;;0.40;0.40;;;21.50;71.50;;;21.55;54.29;95434.81;5059671;28;20202;-76
2022/10/26 15:46:24;;;;;;;0.40;0.40;;;21.50;71.40;;;21.57;54.22;95441.53;5059799;28;20203;-76
2022/10/26 15:48:58;;;;;;;0.40;0.40;;;21.50;71.30;;;21.51;54.08;95428.38;5072305;28;20661;-78
2022/10/26 15:51:25;;;;;;;0.40;0.40;;;21.60;71.20;;;21.60;53.95;95437.56;5039762;28;20203;-77
2022/10/26 15:53:53;;;;;;;0.40;0.40;;;21.50;71.10;;;21.56;54.02;95433.75;5072978;28;20214;-78
2022/10/26 15:56:22;;;;;;;0.40;0.40;;;21.60;71.10;;;21.63;53.94;95446.94;5048991;28;20201;-81
2022/10/26 15:58:51;;;;;;;0.50;0.50;;;21.60;71.00;;;21.64;54.00;95454.72;5043331;28;20600;-77
2022/10/26 16:01:27;;;;;;;0.50;0.50;;;21.60;71.00;;;21.61;53.45;95446.41;5059431;28;20581;-77
2022/10/26 16:03:55;;;;;;;0.45;0.45;;;21.60;70.80;;;21.65;53.87;95455.50;5071973;28;20673;-76
2022/10/26 16:06:34;;;;;;;0.50;0.50;;;21.60;70.80;;;21.63;53.59;95461.09;5039780;28;20202;-79
2022/10/26 16:09:06;;;;;;;0.50;0.50;;;21.60;71.50;;;21.65;53.57;95469.66;5056505;28;20218;-77
2022/10/26 16:11:33;;;;;;;0.43;0.43;;;21.60;70.60;;;21.59;53.80;95459.97;5039157;28;20214;-76
2022/10/26 16:14:00;;;;;;;0.50;0.50;;;21.70;70.70;;;21.67;53.55;95477.44;5055862;28;20197;-74
2022/10/26 16:16:30;;;;;;;0.50;0.50;;;21.60;70.70;;;21.65;53.48;95476.88;5051385;28;20319;-78
2022/10/26 16:18:57;;;;;;;0.40;0.40;;;21.70;70.70;;;21.69;53.65;95483.31;5062767;28;20521;-78
2022/10/26 16:30:13;;;;;;;0.50;0.50;;;21.70;70.40;;;21.70;53.34;95501.78;5468401;23;20255;-79
2022/10/26 16:32:41;;;;;;;0.40;0.40;;;21.70;70.40;;;21.73;52.97;95500.47;4936989;28;20205;-79
2022/10/26 16:35:10;;;;;;;0.30;0.30;;;21.70;70.30;;;21.73;52.92;95503.94;4929154;28;20200;-79
2022/10/26 16:37:37;;;;;;;0.40;0.40;;;21.70;70.30;;;21.70;52.88;95492.94;4945119;28;20282;-79
2022/10/26 16:40:07;;;;;;;0.40;0.40;;;21.70;70.30;;;21.71;52.86;95483.88;4960554;28;20208;-78
2022/10/26 16:42:34;;;;;;;0.40;0.40;;;21.70;70.20;;;21.71;52.94;95489.22;4961325;28;20559;-80
2022/10/26 16:45:02;;;;;;;0.43;0.43;;;21.70;70.20;;;21.67;52.84;95485.44;4939891;28;20203;-78
2022/10/26 16:47:36;;;;;;;0.47;0.47;;;21.70;70.20;;;21.72;52.93;95494.31;4934562;28;20218;-78
2022/10/26 16:50:04;;;;;;;0.40;0.40;;;21.70;70.10;;;21.74;52.80;95504.75;4948033;29;20632;-79
2022/10/26 16:52:34;;;;;;;0.40;0.40;;;21.70;70.10;;;21.80;52.66;95513.63;4931810;28;20547;-80
2022/10/26 16:55:02;;;;;;;0.40;0.40;;;21.70;70.00;;;21.76;52.75;95507.97;4937334;29;20203;-79
2022/10/26 16:57:29;;;;;;;0.50;0.50;;;21.70;70.10;;;21.82;53.03;95511.53;4925718;29;20544;-76
2022/10/26 16:59:57;;;;;;;0.50;0.50;;;21.70;70.20;;;21.79;53.17;95512.81;4941649;29;20214;-79
2022/10/26 17:02:24;;;;;;;0.43;0.43;;;21.80;70.40;;;21.85;52.83;95513.69;4952563;29;20197;-78
2022/10/26 17:04:51;;;;;;;0.40;0.40;;;21.80;70.30;;;21.86;52.84;95513.44;4925764;29;20221;-78
2022/10/26 17:07:18;;;;;;;0.40;0.40;;;21.80;70.20;;;21.87;52.82;95512.41;4941274;29;20194;-78
2022/10/26 17:09:45;;;;;;;0.43;0.43;;;21.80;70.10;;;21.91;53.31;95512.72;4967017;28;20206;-78
2022/10/26 17:12:13;;;;;;;0.40;0.40;;;21.90;70.20;;;21.94;52.77;95520.22;4944456;28;20265;-78
2022/10/26 17:14:40;;;;;;;0.47;0.47;;;21.90;70.10;;;21.94;52.59;95522.88;4944582;28;20256;-78
2022/10/26 17:17:07;;;;;;;0.40;0.40;;;21.90;69.90;;;21.95;52.81;95513.81;4976721;28;20222;-78
2022/10/26 17:19:35;;;;;;;0.40;0.40;;;21.90;69.90;;;21.96;52.74;95515.44;4976425;28;20194;-78
2022/10/26 17:22:02;;;;;;;0.50;0.50;;;21.90;69.80;;;21.98;52.62;95521.31;4960078;28;20208;-78
2022/10/26 17:24:35;;;;;;;0.50;0.50;;;21.90;69.80;;;21.99;52.47;95522.16;4960324;28;20276;-78
2022/10/26 17:27:02;;;;;;;0.40;0.40;;;21.90;69.70;;;21.95;52.48;95516.50;4960764;28;20666;-78
2022/10/26 17:29:29;;;;;;;0.40;0.40;;;22.00;69.80;;;21.99;52.32;95530.16;4959691;28;20248;-78
2022/10/26 17:31:56;;;;;;;0.40;0.40;;;21.90;69.70;;;22.00;52.28;95534.44;4975980;28;20213;-78
2022/10/26 17:34:23;;;;;;;0.40;0.40;;;21.90;69.70;;;21.99;52.62;95536.28;4976246;28;20621;-78
2022/10/26 17:36:50;;;;;;;0.40;0.40;;;22.00;69.60;;;22.02;52.41;95537.66;4960023;28;20197;-78
2022/10/26 17:39:18;;;;;;;0.40;0.40;;;21.90;69.60;;;21.95;52.18;95531.69;4960159;28;20199;-78
2022/10/26 17:41:46;;;;;;;0.30;0.30;;;22.00;69.60;;;21.97;52.29;95545.63;4960229;28;20198;-81
2022/10/26 17:44:13;;;;;;;0.40;0.40;;;22.00;69.50;;;22.00;52.40;95547.81;4977470;28;20617;-78
2022/10/26 17:46:40;;;;;;;0.32;0.32;;;22.00;69.50;;;21.95;52.34;95545.03;4945527;28;20198;-78
2022/10/26 17:49:07;;;;;;;0.40;0.40;;;21.90;69.40;;;21.96;52.36;95558.19;4959846;28;20314;-79
2022/10/26 17:51:35;;;;;;;0.32;0.32;;;21.90;69.30;;;21.97;51.87;95558.97;4944328;28;20542;-79
2022/10/26 17:54:04;;;;;;;0.40;0.40;;;22.00;69.40;;;22.01;52.22;95571.59;4976706;28;20208;-78
2022/10/26 17:56:33;;;;;;;0.50;0.50;;;22.00;69.30;;;22.03;52.07;95577.50;4928661;28;20656;-78
2022/10/26 17:59:04;;;;;;;0.50;0.50;;;22.00;69.30;;;22.01;52.05;95578.81;4944645;28;20190;-79
2022/10/26 18:01:32;;;;;;;0.40;0.40;;;22.00;69.30;;;21.91;51.89;95568.81;4960776;28;20207;-78
2022/10/26 18:03:59;;;;;;;0.40;0.40;;;22.00;69.30;;;22.01;51.74;95584.16;4945331;28;20237;-78
2022/10/26 18:06:27;;;;;;;0.30;0.30;;;21.90;69.20;;;22.00;51.92;95582.53;4960372;28;20297;-78
2022/10/26 18:08:58;;;;;;;0.40;0.40;;;22.00;69.20;;;21.97;51.68;95583.00;4960554;28;20222;-78
2022/10/26 18:11:27;;;;;;;0.50;0.50;;;22.00;69.10;;;22.03;51.91;95595.38;4960374;28;20585;-79
2022/10/26 18:13:55;;;;;;;0.40;0.40;;;22.00;70.10;;;21.93;51.72;95580.03;4960085;28;20230;-78
2022/10/26 18:16:25;;;;;;;0.40;0.40;;;22.00;69.20;;;22.03;51.80;95596.19;4976031;28;20190;-79
2022/10/26 18:19:01;;;;;;;0.40;0.40;;;21.90;69.00;;;22.00;51.72;95594.00;4943681;28;20661;-78
2022/10/26 18:21:31;;;;;;;0.40;0.40;;;22.00;69.00;;;22.02;51.70;95610.59;4960029;28;20214;-78
2022/10/26 18:23:59;;;;;;;0.40;0.40;;;21.90;69.00;;;22.01;51.83;95602.84;4960556;28;20238;-78
2022/10/26 18:26:28;;;;;;;0.50;0.50;;;22.00;69.10;;;22.03;51.53;95603.38;4960030;28;20207;-78
2022/10/26 18:28:58;;;;;;;0.40;0.40;;;21.90;69.00;;;22.03;51.73;95611.41;4928095;28;20233;-79
2022/10/26 18:31:28;;;;;;;0.40;0.40;;;22.00;69.00;;;22.02;51.34;95615.13;4928478;28;20606;-78
2022/10/26 18:33:58;;;;;;;0.40;0.40;;;22.00;69.00;;;21.97;51.34;95607.03;4960629;28;20335;-79
2022/10/26 18:36:26;;;;;;;0.40;0.40;;;22.00;68.90;;;22.03;51.57;95606.06;4947880;28;20568;-78
2022/10/26 18:38:54;;;;;;;0.40;0.40;;;22.00;69.00;;;22.03;51.30;95614.06;4963340;28;20225;-78
2022/10/26 18:41:23;;;;;;;0.40;0.40;;;21.90;68.80;;;22.00;51.42;95615.38;4947750;28;20306;-78
2022/10/26 18:43:53;;;;;;;0.50;0.50;;;21.90;68.80;;;22.02;51.63;95623.97;4964063;28;20207;-77
2022/10/26 18:46:24;;;;;;;0.40;0.40;;;21.90;68.80;;;22.02;51.58;95621.28;4964005;28;20613;-79
2022/10/26 18:48:52;;;;;;;0.50;0.50;;;21.90;68.80;;;22.03;51.57;95624.75;4947582;28;20555;-78
2022/10/26 18:51:24;;;;;;;0.50;0.50;;;21.90;68.80;;;22.01;51.41;95622.34;4947578;28;20202;-79
2022/10/26 18:53:52;;;;;;;0.45;0.45;;;22.00;68.80;;;22.01;51.67;95624.22;4963834;28;20186;-78
2022/10/26 18:56:21;;;;;;;0.45;0.45;;;21.90;68.80;;;21.93;51.20;95609.41;4979120;28;20614;-79
2022/10/26 18:58:52;;;;;;;0.40;0.40;;;21.90;68.70;;;22.00;51.38;95626.06;4947419;28;20638;-79
2022/10/26 19:01:24;;;;;;;0.50;0.50;;;21.90;68.70;;;22.02;51.18;95617.78;4963247;28;20194;-79
2022/10/26 19:04:00;;;;;;;0.40;0.40;;;21.90;68.60;;;21.94;51.80;95611.03;4931615;28;20230;-78
2022/10/26 19:06:31;;;;;;;0.40;0.40;;;21.90;68.60;;;22.00;51.24;95622.59;4947040;28;20557;-78
2022/10/26 19:08:59;;;;;;;0.40;0.40;;;21.90;68.60;;;21.97;51.30;95618.56;4962702;28;20623;-78
2022/10/26 19:11:28;;;;;;;0.50;0.50;;;21.90;68.60;;;22.01;51.12;95624.22;4947256;28;20217;-78
2022/10/26 19:13:56;;;;;;;0.40;0.40;;;21.90;68.60;;;21.97;51.10;95628.41;4964345;28;20207;-79
2022/10/26 19:16:27;;;;;;;0.40;0.40;;;21.90;68.60;;;22.02;51.14;95642.66;4963321;28;20253;-79
2022/10/26 19:19:16;;;;;;;0.40;0.40;;;21.90;68.50;;;22.01;51.19;95641.03;4965225;28;20210;-78
2022/10/26 19:21:46;;;;;;;0.45;0.45;;;21.90;68.60;;;22.02;51.44;95644.50;4946729;28;20221;-78
2022/10/26 19:24:18;;;;;;;0.40;0.40;;;21.90;68.50;;;22.02;51.56;95641.84;4946839;28;20218;-79
2022/10/26 19:26:47;;;;;;;0.40;0.40;;;21.90;68.50;;;22.02;51.13;95636.50;4963177;28;20198;-78
2022/10/26 19:29:17;;;;;;;0.52;0.52;;;21.90;68.50;;;21.95;50.82;95633.19;4930523;28;20627;-79
2022/10/26 19:31:46;;;;;;;0.50;0.50;;;21.90;68.50;;;21.96;50.98;95632.13;4962819;28;20192;-78
2022/10/26 19:34:15;;;;;;;0.40;0.40;;;21.90;68.50;;;22.02;51.23;95639.16;4963242;28;20242;-79
2022/10/26 19:36:44;;;;;;;0.40;0.40;;;21.90;68.50;;;21.94;51.09;95635.06;4962649;28;20565;-78
2022/10/26 19:39:15;;;;;;;0.40;0.40;;;21.90;68.40;;;21.94;50.73;95628.91;4947095;28;20588;-78
2022/10/26 19:41:44;;;;;;;0.43;0.43;;;21.90;68.40;;;21.90;51.00;95631.28;4963054;28;20199;-78
2022/10/26 19:44:12;;;;;;;0.40;0.40;;;21.90;68.40;;;22.02;50.81;95645.34;4962402;28;20201;-78
2022/10/26 19:46:42;;;;;;;0.32;0.32;;;21.90;68.40;;;21.98;50.86;95635.38;4962636;28;20202;-78
2022/10/26 19:49:11;;;;;;;0.30;0.30;;;21.90;68.40;;;22.03;50.83;95651.47;4946624;28;20658;-78
2022/10/26 19:51:38;;;;;;;0.40;0.40;;;21.90;68.30;;;22.00;51.05;95655.44;4963177;28;20293;-77
2022/10/26 19:54:06;;;;;;;0.50;0.50;;;21.90;68.30;;;21.94;51.08;95651.09;4963101;28;20257;-77
2022/10/26 19:56:36;;;;;;;0.47;0.47;;;21.90;68.40;;;21.96;50.83;95664.19;4962137;28;20194;-78
2022/10/26 19:59:05;;;;;;;0.35;0.35;;;21.90;68.30;;;22.01;50.74;95667.75;4962119;28;20198;-77
2022/10/26 20:01:33;;;;;;;0.40;0.40;;;21.90;68.20;;;22.00;50.80;95670.69;4945917;28;20606;-78
2022/10/26 20:04:01;;;;;;;0.50;0.50;;;21.90;68.20;;;21.98;50.96;95676.25;4978462;28;20261;-79
2022/10/26 20:06:29;;;;;;;0.40;0.40;;;21.90;68.20;;;21.92;50.75;95669.22;4946818;28;20202;-78
2022/10/26 20:08:58;;;;;;;0.40;0.40;;;21.90;68.20;;;22.03;50.57;95696.88;4961917;28;20214;-78
2022/10/26 20:11:26;;;;;;;0.40;0.40;;;21.90;68.20;;;21.95;50.59;95676.75;4962449;28;20197;-79
2022/10/26 20:13:56;;;;;;;0.40;0.40;;;21.90;68.20;;;22.01;50.74;95682.97;4946440;28;20202;-78
2022/10/26 20:16:24;;;;;;;0.40;0.40;;;21.90;68.20;;;21.98;50.46;95678.91;4946048;28;20199;-78
2022/10/26 20:18:51;;;;;;;0.40;0.40;;;21.90;68.20;;;22.02;50.69;95682.72;4961662;28;20250;-78
2022/10/26 20:21:18;;;;;;;0.40;0.40;;;21.90;68.20;;;22.00;50.60;95676.00;4961720;28;20692;-78
2022/10/26 20:23:46;;;;;;;0.40;0.40;;;21.90;68.20;;;22.01;50.61;95680.31;4978071;28;20202;-78
2022/10/26 20:26:13;;;;;;;0.50;0.50;;;21.90;68.20;;;21.98;50.89;95681.59;4978093;28;20234;-78
2022/10/26 20:28:49;;;;;;;0.45;0.45;;;21.90;68.10;;;22.00;50.27;95690.16;4962349;28;20716;-78
2022/10/26 20:31:18;;;;;;;0.40;0.40;;;21.90;68.10;;;21.91;50.60;95672.97;4962243;28;20357;-78
2022/10/26 20:33:52;;;;;;;0.50;0.50;;;21.90;68.00;;;21.98;50.62;95683.47;4961994;28;20270;-78
2022/10/26 20:36:19;;;;;;;0.40;0.40;;;21.90;68.00;;;22.00;50.74;95681.34;4946021;28;20189;-78
2022/10/26 20:38:47;;;;;;;0.40;0.40;;;21.90;68.10;;;21.98;50.74;95681.59;4961304;28;20632;-78
2022/10/26 20:41:15;;;;;;;0.40;0.40;;;21.90;68.10;;;22.01;50.17;95688.31;4945579;28;20214;-78
2022/10/26 20:43:42;;;;;;;0.40;0.40;;;21.90;68.00;;;22.01;50.49;95686.44;4978123;28;20224;-78
2022/10/26 20:46:19;;;;;;;0.40;0.40;;;21.90;68.00;;;22.00;50.35;95687.50;4944782;28;20206;-78
2022/10/26 20:48:47;;;;;;;0.40;0.40;;;21.90;68.00;;;22.00;50.51;95684.03;4929153;28;20251;-78
2022/10/26 20:51:40;;;;;;;0.40;0.40;;;21.90;68.00;;;21.97;50.60;95698.69;4977035;28;20201;-78
2022/10/26 20:54:44;;;;;;;0.45;0.45;;;21.90;67.90;;;21.96;50.54;95699.75;4947164;28;20269;-78
2022/10/26 20:57:17;;;;;;;0.40;0.40;;;21.90;67.80;;;21.98;50.47;95704.81;4944373;28;20265;-78
2022/10/26 20:59:51;;;;;;;0.40;0.40;;;21.90;67.80;;;21.97;50.23;95701.34;4960833;28;20280;-78
2022/10/26 21:02:19;;;;;;;0.40;0.40;;;21.90;67.70;;;21.93;50.30;95700.22;4960925;28;20204;-78
2022/10/26 21:04:47;;;;;;;0.40;0.40;;;21.90;67.80;;;21.97;50.18;95712.03;4960939;28;20201;-78
2022/10/26 21:07:14;;;;;;;0.40;0.40;;;21.90;67.80;;;21.95;50.63;95707.97;4960823;28;20236;-78
2022/10/26 21:09:41;;;;;;;0.40;0.40;;;21.90;67.90;;;21.98;50.28;95712.84;4976312;28;20221;-78
2022/10/26 21:12:08;;;;;;;0.40;0.40;;;21.90;67.80;;;21.89;50.52;95701.75;4960817;28;20204;-78
2022/10/26 21:14:39;;;;;;;0.30;0.30;;;21.80;67.80;;;21.96;50.57;95717.59;4944558;28;20260;-78
2022/10/26 21:17:07;;;;;;;0.50;0.50;;;21.90;67.90;;;21.98;50.59;95723.53;4976837;28;20648;-78
2022/10/26 21:19:35;;;;;;;0.50;0.50;;;21.90;67.80;;;21.98;50.55;95731.53;4960225;28;20263;-78
2022/10/26 21:22:02;;;;;;;0.43;0.43;;;21.90;67.80;;;21.91;50.30;95713.03;4960250;28;20659;-78
2022/10/26 21:24:29;;;;;;;0.40;0.40;;;21.90;67.80;;;21.95;50.19;95730.16;4976830;28;20220;-78
2022/10/26 21:26:57;;;;;;;0.40;0.40;;;21.90;67.80;;;21.96;50.10;95729.13;4976629;28;20264;-78
2022/10/26 21:29:24;;;;;;;0.40;0.40;;;21.90;67.70;;;21.99;50.20;95733.97;4957369;28;20247;-78
2022/10/26 21:31:51;;;;;;;0.40;0.40;;;21.90;67.70;;;21.97;50.33;95733.41;4941615;29;20245;-78
2022/10/26 21:34:18;;;;;;;0.45;0.45;;;21.90;67.70;;;21.96;50.28;95726.44;4957191;29;20206;-78
2022/10/26 21:36:46;;;;;;;0.43;0.43;;;21.90;67.70;;;21.96;50.48;95737.13;4973313;28;20194;-78
2022/10/26 21:39:13;;;;;;;0.47;0.47;;;21.90;67.70;;;21.99;50.01;95741.19;4941599;29;20194;-78
2022/10/26 21:41:42;;;;;;;0.45;0.45;;;21.90;67.70;;;21.95;50.02;95732.84;4957128;29;20214;-78
2022/10/26 21:44:09;;;;;;;0.40;0.40;;;21.90;67.70;;;21.93;50.41;95732.25;4956656;29;20281;-78
2022/10/26 21:46:51;;;;;;;0.40;0.40;;;21.90;67.70;;;21.97;50.28;95746.78;4943231;29;20190;-78
2022/10/26 21:49:18;;;;;;;0.40;0.40;;;21.90;67.70;;;21.97;50.24;95736.09;4924819;29;20249;-78
2022/10/26 21:51:46;;;;;;;0.40;0.40;;;21.90;67.60;;;21.92;50.11;95738.66;4957387;29;20194;-78
2022/10/26 21:54:13;;;;;;;0.45;0.45;;;21.90;67.60;;;21.95;50.33;95737.34;4924893;29;20633;-78
2022/10/26 21:56:40;;;;;;;0.40;0.40;;;21.90;67.60;;;21.97;50.08;95738.75;4956807;29;20193;-78
2022/10/26 21:59:07;;;;;;;0.40;0.40;;;21.90;67.70;;;21.95;49.91;95740.84;4940731;29;20203;-78
2022/10/26 22:01:35;;;;;;;0.40;0.40;;;21.90;67.60;;;21.98;50.22;95745.69;4973186;28;20301;-78
2022/10/26 22:04:03;;;;;;;0.40;0.40;;;21.80;67.50;;;21.95;50.22;95738.19;4941036;29;20209;-78
2022/10/26 22:06:30;;;;;;;0.40;0.40;;;21.90;67.60;;;21.95;50.18;95740.03;4972477;28;20640;-78
2022/10/26 22:08:57;;;;;;;0.50;0.50;;;21.90;67.60;;;21.94;50.31;95738.44;4956933;28;20763;-78
2022/10/26 22:11:24;;;;;;;0.40;0.40;;;21.90;67.60;;;21.93;49.64;95739.47;4944313;29;20209;-78
2022/10/26 22:13:52;;;;;;;0.50;0.50;;;21.90;67.60;;;21.95;49.98;95746.19;4960625;29;20630;-78
2022/10/26 22:16:22;;;;;;;0.40;0.40;;;21.90;67.60;;;21.97;50.11;95745.94;4976624;28;20191;-78
2022/10/26 22:18:51;;;;;;;0.40;0.40;;;21.90;67.60;;;21.94;49.91;95741.91;4928756;29;20196;-78
2022/10/26 22:21:22;;;;;;;0.50;0.50;;;21.90;67.60;;;21.91;50.21;95737.84;4960005;29;20206;-78
2022/10/26 22:23:50;;;;;;;0.50;0.50;;;21.90;67.50;;;21.96;50.05;95745.16;4944859;29;20608;-78
2022/10/26 22:26:21;;;;;;;0.40;0.40;;;21.90;67.50;;;21.96;50.00;95749.66;4976341;28;20199;-78
2022/10/26 22:28:51;;;;;;;0.40;0.40;;;21.90;67.40;;;21.97;50.03;95749.44;4960137;29;20183;-78
2022/10/26 22:31:23;;;;;;;0.40;0.40;;;21.80;67.40;;;21.90;49.80;95738.09;4962947;28;20760;-78
2022/10/26 22:33:57;;;;;;;0.40;0.40;;;21.90;67.40;;;21.96;50.16;95752.34;4947538;28;20273;-78
2022/10/26 22:36:31;;;;;;;0.40;0.40;;;21.80;67.30;;;21.95;49.81;95743.53;4964293;28;20272;-78
2022/10/26 22:38:59;;;;;;;0.40;0.40;;;21.90;67.40;;;21.95;49.69;95748.88;4947604;28;20194;-78
2022/10/26 22:41:26;;;;;;;0.40;0.40;;;21.90;67.30;;;21.91;50.11;95745.88;4980141;28;20264;-78
2022/10/26 22:43:54;;;;;;;0.50;0.50;;;21.90;67.40;;;21.95;50.16;95750.72;4980460;28;20644;-78
2022/10/26 22:46:24;;;;;;;0.40;0.40;;;21.90;67.40;;;21.88;49.97;95741.00;4931345;28;20200;-78
2022/10/26 22:48:58;;;;;;;0.40;0.40;;;21.90;67.30;;;21.95;49.58;95748.88;4963788;28;20193;-77
2022/10/26 22:51:29;;;;;;;0.43;0.43;;;21.90;67.30;;;21.90;49.62;95740.78;4947187;28;20273;-77
2022/10/26 22:53:59;;;;;;;0.40;0.40;;;21.90;67.30;;;21.95;49.81;95754.22;4963642;28;20197;-77
2022/10/26 22:56:30;;;;;;;0.40;0.40;;;21.90;67.30;;;21.95;49.57;95753.38;4947137;28;20194;-77
2022/10/26 22:58:58;;;;;;;0.40;0.40;;;21.90;67.40;;;21.88;50.11;95743.66;4980572;28;20281;-77
2022/10/26 23:01:32;;;;;;;0.47;0.47;;;21.80;67.30;;;21.89;49.87;95755.97;4931308;28;20205;-77
2022/10/26 23:03:59;;;;;;;0.40;0.40;;;21.90;67.30;;;21.95;49.71;95758.72;4963356;28;20206;-77
2022/10/26 23:06:29;;;;;;;0.40;0.40;;;21.90;67.40;;;21.95;50.06;95762.22;4980272;28;20691;-77
2022/10/26 23:08:57;;;;;;;0.40;0.40;;;21.80;67.20;;;21.92;49.47;95757.34;4962917;28;20194;-77
2022/10/26 23:11:27;;;;;;;0.47;0.47;;;21.90;67.30;;;21.94;49.77;95765.94;4962688;28;20203;-77
2022/10/26 23:14:02;;;;;;;0.40;0.40;;;21.80;67.30;;;21.94;49.82;95767.81;4963315;28;20209;-77
2022/10/26 23:16:30;;;;;;;0.40;0.40;;;21.80;67.10;;;21.87;49.92;95755.44;4963074;28;20189;-77
2022/10/26 23:18:58;;;;;;;0.40;0.40;;;21.90;67.30;;;21.94;49.63;95773.94;4931015;28;20198;-77
2022/10/26 23:21:27;;;;;;;0.43;0.43;;;21.90;67.30;;;21.95;49.95;95782.75;4962016;28;20197;-77
2022/10/26 23:23:56;;;;;;;0.45;0.45;;;21.90;67.20;;;21.89;49.64;95769.31;4947035;28;20301;-77
2022/10/26 23:26:24;;;;;;;0.30;0.30;;;21.80;67.10;;;21.90;49.71;95770.94;4930633;28;20280;-77
2022/10/26 23:28:51;;;;;;;0.40;0.40;;;21.80;67.20;;;21.93;49.70;95774.19;4930676;28;20643;-77
2022/10/26 23:31:21;;;;;;;0.50;0.50;;;21.80;67.10;;;21.95;50.02;95780.09;4962191;28;20250;-77
2022/10/26 23:33:50;;;;;;;0.40;0.40;;;21.80;67.10;;;21.92;49.30;95776.03;4946720;28;20183;-77
2022/10/26 23:36:19;;;;;;;0.30;0.30;;;21.90;67.30;;;21.94;49.44;95779.28;4963723;28;20201;-78
2022/10/26 23:38:47;;;;;;;0.40;0.40;;;21.80;67.10;;;21.93;49.71;95787.56;4947109;28;20632;-77
2022/10/26 23:41:15;;;;;;;0.50;0.50;;;21.90;67.20;;;21.92;49.81;95781.38;4947099;28;20206;-77
2022/10/26 23:43:42;;;;;;;0.40;0.40;;;21.80;67.10;;;21.90;49.55;95772.81;4931380;28;20652;-77
2022/10/26 23:46:10;;;;;;;0.40;0.40;;;21.90;67.20;;;21.91;49.50;95774.44;4931226;28;20704;-77
2022/10/26 23:48:37;;;;;;;0.40;0.40;;;21.80;67.10;;;21.90;49.45;95776.28;4962968;28;20200;-77
2022/10/26 23:51:04;;;;;;;0.40;0.40;;;21.80;67.10;;;21.88;49.60;95766.91;4930744;28;20214;-77
2022/10/26 23:53:32;;;;;;;0.40;0.40;;;21.80;67.10;;;21.84;49.47;95763.91;4930690;28;20546;-77
2022/10/26 23:55:59;;;;;;;0.40;0.40;;;21.80;67.10;;;21.92;49.52;95784.06;4962658;28;20197;-77
2022/10/26 23:58:26;;;;;;;0.40;0.40;;;21.80;67.10;;;21.92;49.74;95786.72;4946453;28;20200;-77
